Stockholm, Sweden

11:40 PM CET on December 17, 2014 (GMT +0100)
Bromma | Change Station
CLOSE
Current Station
Airport
Location: Stockholm Bromma,
Elevation: 46 ft
Nearby Weather Stations

Elev 46 ft 59.37 °N, 17.90 °E | Updated 20 minutes ago

Mist
Mist
25 °F
Feels Like 20 °F
N
4
Wind Variable Wind from SSW

Today
High -- | Low -- °F
--% Chance of Precip.
Yesterday
High -- | Low -- °F
Precip. -- in
8:40 AM 2:47 PM
Waning Crescent, 19% visible
Pressure 29.50 in
Visibility 3.7 miles
Clouds
Windchill 20 °F
Dew Point 25 °F
Humidity 100%
Rainfall 0.00 in
Snow Depth Not available.
UV Not available.
Pollen Not available.
Air Quality Not available.
Flu Activity Not available.
METAR ESSB 172220Z AUTO 21003KT 6000 BR NCD M04/M04 Q0999

More Conditions Fewer Conditions

Pressure 29.50 in
Visibility 3.7 miles
Clouds
Windchill 20 °F
Dew Point 25 °F
Humidity 100%
Rainfall 0.00 in
Snow Depth Not available.
UV Not available.
Pollen Not available.
Air Quality Not available.
Flu Activity Not available.
METAR ESSB 172220Z AUTO 21003KT 6000 BR NCD M04/M04 Q0999

More Conditions Fewer Conditions

10-Day Weather Forecast

Almanac

Astronomy

Dec. 17, 2014 Rise Set
Actual Time
Civil Twilight
Nautical Twilight
Astronomical Twilight
Moon
Length of Visible Light
Length of Day
Tomorrow will be .
, % of the Moon is Illuminated

Today's Extremes

Country Highs Country Lows

Community

WunderPhotos

Upload Photos

1,778,813 photos uploaded!

WunderBlogs® & News

Nearby

Air Quality

  Air Quality AQ Index Pollutant
Not available.

Snow Depth

Station Depth Elevation

Earthquake Activity

City Distance Mag. Time & Date
Minimum magnitude displayed is 2.5.

Coastal Water Temperatures

Place Temperature

Nearby Weather Stations